createdAt,value
2023-04-17T00:03:53.072Z,7.60
2023-04-17T00:08:56.069Z,7.73
2023-04-17T00:13:58.490Z,7.97
2023-04-17T00:19:00.955Z,6.97
2023-04-17T00:24:03.400Z,7.50
2023-04-17T00:29:05.912Z,6.97
2023-04-17T00:34:08.360Z,7.57
2023-04-17T00:39:10.965Z,7.30
2023-04-17T00:44:13.490Z,8.27
2023-04-17T00:49:15.973Z,7.73
2023-04-17T00:54:19.507Z,8.40
2023-04-17T00:59:22.396Z,8.43
2023-04-17T01:04:24.943Z,8.97
2023-04-17T01:09:27.986Z,7.07
2023-04-17T01:14:30.271Z,8.57
2023-04-17T01:19:32.815Z,7.63
2023-04-17T01:24:35.273Z,7.00
2023-04-17T01:29:37.689Z,7.70
2023-04-17T01:34:40.340Z,7.60
2023-04-17T01:39:42.817Z,8.33
2023-04-17T01:44:45.303Z,8.23
2023-04-17T01:49:48.598Z,7.97
2023-04-17T01:54:51.001Z,8.33
2023-04-17T01:59:53.467Z,8.50
2023-04-17T02:04:55.929Z,7.63
2023-04-17T02:09:58.353Z,6.83
2023-04-17T02:15:01.575Z,7.13
2023-04-17T02:20:08.000Z,7.07
2023-04-17T02:25:10.390Z,7.77
2023-04-17T02:30:13.077Z,8.70
2023-04-17T02:35:15.732Z,7.97
2023-04-17T02:40:18.337Z,7.73
2023-04-17T02:45:20.909Z,11.17
2023-04-17T02:50:23.408Z,8.60
2023-04-17T02:55:48.655Z,8.67
2023-04-17T03:01:00.806Z,13.17
2023-04-17T03:06:04.762Z,10.57
2023-04-17T03:11:07.671Z,11.30
2023-04-17T03:16:10.322Z,9.27
2023-04-17T03:21:14.110Z,9.40
2023-04-17T03:26:16.460Z,8.10
2023-04-17T03:31:19.020Z,9.50
2023-04-17T03:36:21.667Z,8.53
2023-04-17T03:41:24.390Z,9.40
2023-04-17T03:46:27.050Z,9.27
2023-04-17T03:51:29.805Z,10.10
2023-04-17T03:56:37.388Z,10.07
2023-04-17T04:01:41.408Z,9.47
2023-04-17T04:06:54.793Z,9.17
2023-04-17T04:11:57.892Z,10.90
2023-04-17T04:17:00.982Z,9.20
2023-04-17T04:22:06.715Z,8.60
2023-04-17T04:27:24.592Z,9.03
2023-04-17T04:32:28.800Z,10.13
2023-04-17T04:37:32.875Z,9.03
2023-04-17T04:42:42.608Z,9.80
2023-04-17T04:47:51.067Z,8.40
2023-04-17T04:52:54.506Z,9.23
2023-04-17T04:58:10.436Z,9.10
2023-04-17T05:03:14.681Z,9.07
2023-04-17T05:08:17.463Z,9.07
2023-04-17T05:13:30.680Z,8.60
2023-04-17T05:18:33.746Z,9.23
2023-04-17T05:23:37.155Z,8.43
2023-04-17T05:28:41.315Z,8.97
2023-04-17T05:33:43.975Z,9.90
2023-04-17T05:38:48.584Z,9.07
2023-04-17T05:43:51.495Z,8.30
2023-04-17T05:48:56.082Z,9.63
2023-04-17T05:53:59.159Z,9.10
2023-04-17T05:59:01.922Z,8.30
2023-04-17T06:04:04.863Z,7.37
2023-04-17T06:09:09.644Z,8.03
2023-04-17T06:14:13.034Z,7.90
2023-04-17T06:19:16.483Z,8.03
2023-04-17T06:24:20.482Z,8.20
2023-04-17T06:29:24.035Z,8.17
2023-04-17T06:34:27.106Z,7.13
2023-04-17T06:39:32.076Z,7.83
2023-04-17T06:44:36.300Z,7.20
2023-04-17T06:49:38.647Z,7.90
2023-04-17T06:54:41.090Z,9.70
2023-04-17T06:59:43.422Z,7.57
2023-04-17T07:04:45.953Z,8.90
2023-04-17T07:09:48.597Z,9.50
2023-04-17T07:14:51.525Z,8.97
2023-04-17T07:19:53.914Z,8.97
2023-04-17T07:24:56.211Z,8.83
2023-04-17T07:30:01.642Z,9.80
2023-04-17T07:35:05.623Z,9.00
2023-04-17T07:40:10.051Z,9.37
2023-04-17T07:45:12.306Z,8.77
2023-04-17T07:50:14.700Z,9.47
2023-04-17T07:55:17.324Z,11.63
2023-04-17T08:00:19.927Z,9.43
2023-04-17T08:05:24.037Z,9.47
2023-04-17T08:10:30.078Z,9.60
2023-04-17T08:15:32.482Z,11.90
2023-04-17T08:20:34.783Z,9.00
2023-04-17T08:25:38.206Z,9.07
2023-04-17T08:30:40.511Z,13.43
2023-04-17T08:35:42.922Z,9.30
2023-04-17T08:40:49.508Z,8.57
2023-04-17T08:45:55.847Z,7.00
2023-04-17T08:50:58.588Z,7.43
2023-04-17T08:56:07.529Z,4.83
2023-04-17T09:01:18.020Z,5.00
2023-04-17T09:06:20.392Z,5.45
2023-04-17T09:11:22.781Z,6.23
2023-04-17T09:16:26.038Z,5.80
2023-04-17T09:21:29.450Z,4.90
2023-04-17T09:26:33.608Z,5.30
2023-04-17T09:31:37.886Z,5.47
2023-04-17T09:36:42.402Z,5.60
2023-04-17T09:41:45.213Z,5.73
2023-04-17T09:46:48.022Z,5.83
2023-04-17T09:51:51.116Z,5.70
2023-04-17T09:56:56.356Z,5.80
2023-04-17T10:01:58.923Z,3.77
2023-04-17T10:07:03.359Z,4.20
2023-04-17T10:12:06.292Z,4.30
2023-04-17T10:17:31.981Z,4.03
2023-04-17T10:22:35.125Z,3.60
2023-04-17T10:27:37.745Z,2.50
2023-04-17T10:32:45.986Z,2.93
2023-04-17T10:37:51.087Z,3.00
2023-04-17T10:43:20.188Z,3.00
2023-04-17T10:48:24.584Z,3.50
2023-04-17T10:53:45.386Z,3.53
2023-04-17T10:58:59.365Z,3.30
2023-04-17T11:04:01.799Z,4.03
2023-04-17T11:09:08.431Z,4.07
2023-04-17T11:14:18.576Z,3.63
2023-04-17T11:19:23.384Z,4.50
2023-04-17T11:24:30.855Z,4.13
2023-04-17T11:29:33.430Z,4.10
2023-04-17T11:34:37.516Z,5.63
2023-04-17T11:39:42.774Z,4.60
2023-04-17T11:44:45.207Z,4.63
2023-04-17T11:49:47.569Z,4.50
2023-04-17T11:54:58.020Z,6.10
2023-04-17T12:00:00.297Z,5.60
2023-04-17T12:05:18.662Z,6.07
2023-04-17T12:10:24.238Z,5.80
2023-04-17T12:15:28.413Z,5.93
2023-04-17T12:20:30.817Z,5.30
2023-04-17T12:25:34.182Z,5.77
2023-04-17T12:30:40.049Z,5.70
2023-04-17T12:35:42.394Z,7.03
2023-04-17T12:40:45.930Z,6.57
2023-04-17T12:45:48.672Z,5.30
2023-04-17T12:50:51.201Z,5.63
2023-04-17T12:55:53.584Z,5.20
2023-04-17T13:00:56.069Z,5.20
2023-04-17T13:05:58.504Z,4.70
2023-04-17T13:11:03.984Z,4.23
2023-04-17T13:16:06.759Z,5.37
2023-04-17T13:21:10.324Z,4.30
2023-04-17T13:26:12.722Z,5.07
2023-04-17T13:31:15.107Z,4.20
2023-04-17T13:36:17.500Z,4.43
2023-04-17T13:41:19.931Z,4.30
2023-04-17T13:46:22.553Z,4.17
2023-04-17T13:51:24.916Z,4.33
2023-04-17T13:56:27.713Z,4.47
2023-04-17T14:01:30.172Z,4.57
2023-04-17T14:06:34.079Z,4.77
2023-04-17T14:11:36.464Z,5.23
2023-04-17T14:16:40.277Z,4.10
2023-04-17T14:21:43.215Z,4.40
2023-04-17T14:26:45.680Z,4.07
2023-04-17T14:31:48.224Z,3.97
2023-04-17T14:36:50.832Z,4.13
2023-04-17T14:41:53.327Z,4.00
2023-04-17T14:46:57.146Z,4.17
2023-04-17T14:51:59.621Z,4.13
2023-04-17T14:57:02.084Z,4.77
2023-04-17T15:02:07.566Z,3.47
2023-04-17T15:07:10.095Z,3.87
2023-04-17T15:12:12.521Z,4.20
2023-04-17T15:17:15.106Z,4.27
2023-04-17T15:22:17.658Z,3.97
2023-04-17T15:27:20.458Z,4.43
2023-04-17T15:32:23.057Z,5.33
2023-04-17T15:37:25.564Z,4.80
2023-04-17T15:42:28.235Z,4.87
2023-04-17T15:47:33.002Z,4.53
2023-04-17T15:52:35.449Z,5.17
2023-04-17T15:57:39.316Z,5.77
2023-04-17T16:02:42.673Z,4.83
2023-04-17T16:07:46.053Z,5.70
2023-04-17T16:12:48.440Z,5.17
2023-04-17T16:17:51.092Z,5.20
2023-04-17T16:22:53.631Z,5.33
2023-04-17T16:27:56.210Z,6.40
2023-04-17T16:32:58.819Z,6.90
2023-04-17T16:38:02.074Z,8.43
2023-04-17T16:43:04.497Z,8.43
2023-04-17T16:48:09.345Z,8.03
2023-04-17T16:53:11.970Z,7.60
2023-04-17T16:58:14.474Z,6.43
2023-04-17T17:03:18.199Z,7.23
2023-04-17T17:08:20.601Z,6.70
2023-04-17T17:13:23.669Z,6.13
2023-04-17T17:18:26.451Z,6.40
2023-04-17T17:23:28.858Z,6.17
2023-04-17T17:28:31.395Z,5.67
2023-04-17T17:33:34.685Z,4.90
2023-04-17T17:38:37.181Z,5.80
2023-04-17T17:43:39.539Z,5.70
2023-04-17T17:48:42.108Z,5.27
2023-04-17T17:53:44.430Z,4.67
2023-04-17T17:58:46.899Z,4.30
2023-04-17T18:03:49.923Z,5.10
2023-04-17T18:08:53.304Z,5.90
2023-04-17T18:13:55.680Z,7.90
2023-04-17T18:19:00.158Z,6.93
2023-04-17T18:24:02.524Z,7.57
2023-04-17T18:29:05.136Z,7.00
2023-04-17T18:34:07.808Z,7.93
2023-04-17T18:39:10.399Z,7.37
2023-04-17T18:44:15.108Z,6.70
2023-04-17T18:49:17.620Z,6.73
2023-04-17T18:54:22.306Z,7.67
2023-04-17T18:59:26.547Z,8.43
2023-04-17T19:04:30.832Z,6.97
2023-04-17T19:09:33.249Z,7.37
2023-04-17T19:14:35.652Z,8.43
2023-04-17T19:19:38.391Z,9.57
2023-04-17T19:24:53.175Z,9.47
2023-04-17T19:29:57.185Z,9.40
2023-04-17T19:35:00.047Z,9.00
2023-04-17T19:40:14.255Z,9.50
2023-04-17T19:45:21.830Z,7.60
2023-04-17T19:50:27.926Z,7.80
2023-04-17T19:55:30.293Z,8.63
2023-04-17T20:00:32.967Z,5.93
2023-04-17T20:05:36.086Z,7.40
2023-04-17T20:10:38.666Z,6.70
2023-04-17T20:15:41.775Z,6.83
2023-04-17T20:20:44.223Z,7.10
2023-04-17T20:25:46.936Z,7.73
2023-04-17T20:30:49.834Z,10.80
2023-04-17T20:35:52.093Z,10.63
2023-04-17T20:40:54.435Z,9.87
2023-04-17T20:45:56.805Z,6.87
2023-04-17T20:51:02.371Z,6.70
2023-04-17T20:56:04.997Z,7.60
2023-04-17T21:01:07.368Z,9.30
2023-04-17T21:06:09.961Z,9.87
2023-04-17T21:11:12.303Z,9.63
2023-04-17T21:16:14.858Z,7.57
2023-04-17T21:21:17.266Z,8.93
2023-04-17T21:26:19.843Z,11.37
2023-04-17T21:31:22.185Z,8.93
2023-04-17T21:36:25.261Z,10.40
2023-04-17T21:41:27.580Z,9.50
2023-04-17T21:46:29.998Z,10.47
2023-04-17T21:51:32.384Z,9.90
2023-04-17T21:56:34.760Z,9.90
2023-04-17T22:01:37.313Z,10.63
2023-04-17T22:06:39.873Z,10.07
2023-04-17T22:11:42.142Z,8.00
2023-04-17T22:16:44.626Z,7.73
2023-04-17T22:21:46.945Z,8.37
2023-04-17T22:26:49.324Z,9.20
2023-04-17T22:31:51.717Z,8.80
2023-04-17T22:36:54.211Z,9.07
2023-04-17T22:41:57.623Z,7.87
2023-04-17T22:47:00.955Z,7.47
2023-04-17T22:52:03.390Z,8.90
2023-04-17T22:57:05.881Z,8.70
2023-04-17T23:02:08.473Z,9.83
2023-04-17T23:07:11.022Z,8.00
2023-04-17T23:12:13.393Z,8.60
2023-04-17T23:17:15.707Z,9.20
2023-04-17T23:22:18.051Z,9.97
2023-04-17T23:27:20.651Z,7.80
2023-04-17T23:32:25.735Z,9.03
2023-04-17T23:37:28.197Z,9.90
2023-04-17T23:42:31.204Z,8.77
2023-04-17T23:47:33.759Z,8.00
2023-04-17T23:52:36.186Z,10.17
2023-04-17T23:57:38.840Z,8.93
